Nathaniel B. Palmer — WBP3210 — position and weather

sailwx.info

Track history (hours):
 
Tides and Currents Weather Stations Pressure Air Temp Water Temp Dewpoint Dewpoint Depression Visibility Wind Speed Wind Dir Waves Ship Positions

Oceanographic research ship Nathaniel B. Palmer (USA)

Contact: Ethan Norris, ethan.norris.contractor@usap.gov

Detailed information on ship capabilities available from University of Delaware's Ocean Information Center and ARCUS's ALIAS (Arctic Logistics Information and Support) project.

Owner: OFFSHORE SERVICE VESSELS, Cut Off, LA. More information available from US FCC via Universal Licensing System and Coast Guard Vessel Documentation Center.

Last reported at 2018-Dec-19 11:00 UTC. Time now 2018-Dec-19 12:13 UTC.
Position S 53°06' W 070°54'.

Type: Other ship. MMSI: 366610000.

Wind from 070 at 4 knots

Barometer 1010.2 mb
Air temperature 8.8 ° C
Water temperature -0.0 ° C

Date/timePositionNaut miles runAvg speedWind from/ knotsBaromVisibWave heightAir tempDewpointWater temp
2018-Dec-19 11:00S 53°06' W 070°54'0 0.0 070 / 41010.2 8.8 -0.0
2018-Dec-19 10:00S 53°06' W 070°54'0 0.0 090 / 11009.9 8.6 -0.0
2018-Dec-19 09:00S 53°06' W 070°54'0 0.0 190 / 11009.4 8.3 -0.0
2018-Dec-19 08:00S 53°06' W 070°54'0 0.0 160 / 31008.7 8.3 -0.0
2018-Dec-19 07:00S 53°06' W 070°54'0 0.0 180 / 61008.0 8.3 -0.0
2018-Dec-19 06:00S 53°06' W 070°54'0 0.0 200 / 61007.7 8.4 -0.0
2018-Dec-19 05:00S 53°06' W 070°54'0 0.0 200 / 81007.2 8.5 -0.0
2018-Dec-19 04:00S 53°06' W 070°54'0 0.0 190 / 71006.6 8.7 -0.0
2018-Dec-19 03:00S 53°06' W 070°54'0 0.0 170 / 61006.0 9.2 -0.0
2018-Dec-19 02:00S 53°06' W 070°54'0 0.0 190 / 31005.4 9.6 -0.0
2018-Dec-19 01:00S 53°06' W 070°54'0 0.0 180 / 21004.6 10.0 -0.0
2018-Dec-19 00:00S 53°06' W 070°54'0 0.0 170 / 21003.7 10.2 -0.0
2018-Dec-18 23:00S 53°06' W 070°54'0 0.0 180 / 41002.9 10.4 -0.0
2018-Dec-18 22:00S 53°06' W 070°54'0 0.0 110 / 21002.1 10.4 -0.0
2018-Dec-18 21:00S 53°06' W 070°54'0 0.0 080 / 61001.5 10.1 -0.0
2018-Dec-18 20:00S 53°06' W 070°54'0 0.0 150 / 101000.9 12.8 -0.0
2018-Dec-18 19:00S 53°06' W 070°54'0 0.0 260 / 161000.4 15.2 -0.0
2018-Dec-18 18:00S 53°06' W 070°54'0 0.0 270 / 141000.0 15.1 -0.0
2018-Dec-18 17:00S 53°06' W 070°54'0 0.0 260 / 161000.1 14.7 -0.0
2018-Dec-18 16:00S 53°06' W 070°54'0 0.0 270 / 141000.4 14.0 -0.0
2018-Dec-18 15:00S 53°06' W 070°54'0 0.0 290 / 101000.6 13.1 -0.0
2018-Dec-18 14:00S 53°06' W 070°54'0 0.0 290 / 121001.3 12.2 -0.0
2018-Dec-18 13:00S 53°06' W 070°54'0 0.0 300 / 131001.8 11.3 -0.0
2018-Dec-18 12:00S 53°06' W 070°54'0 0.0 300 / 91002.4 10.3 -0.0
2018-Dec-18 11:00S 53°06' W 070°54'0 0.0 310 / 71003.3 9.4 -0.0
2018-Dec-18 10:00S 53°06' W 070°54'0 0.0 300 / 81004.3 9.3 -0.0
2018-Dec-18 09:00S 53°06' W 070°54'0 0.0 290 / 81005.1 9.4 -0.0
2018-Dec-18 08:00S 53°06' W 070°54'0 0.0 270 / 181005.3 10.1 -0.0
2018-Dec-18 07:00S 53°06' W 070°54'0 0.0 270 / 191006.0 10.1 -0.0
2018-Dec-18 06:00S 53°06' W 070°54'0 0.0 280 / 181006.4 10.4 -0.0
2018-Dec-18 05:00S 53°06' W 070°54'0 0.0 270 / 221006.8 10.5 -0.0
2018-Dec-18 04:00S 53°06' W 070°54'0 0.0 270 / 171007.6 10.5 -0.0
2018-Dec-18 03:00S 53°06' W 070°54'0 0.0 280 / 161008.3 10.3 -0.0
2018-Dec-18 02:00S 53°06' W 070°54'0 0.0 270 / 181008.3 10.6 -0.0
2018-Dec-18 01:00S 53°06' W 070°54'0 0.0 300 / 91008.7 10.9 -0.0
2018-Dec-18 00:00S 53°06' W 070°54'0 0.0 250 / 191008.2 11.0 -0.0
2018-Dec-17 23:00S 53°06' W 070°54'0 0.0 260 / 191008.8 11.3 -0.0
2018-Dec-17 22:00S 53°06' W 070°54'0 0.0 280 / 191008.9 11.6 -0.0
2018-Dec-17 21:00S 53°06' W 070°54'0 0.0 270 / 161008.8 11.9 -0.0
2018-Dec-17 20:00S 53°06' W 070°54'0 0.0 260 / 161008.3 12.9 -0.0
2018-Dec-17 19:00S 53°06' W 070°54'0 0.0 250 / 181007.8 13.0 -0.0
2018-Dec-17 18:00S 53°06' W 070°54'0 0.0 260 / 161007.9 13.1 -0.0
2018-Dec-17 17:00S 53°06' W 070°54'0 0.0 260 / 191008.0 12.3 -0.0
2018-Dec-17 16:00S 53°06' W 070°54'0 0.0 250 / 301007.1 12.1 -0.0
2018-Dec-17 15:00S 53°06' W 070°54'0 0.0 250 / 281006.9 11.5 -0.0
2018-Dec-17 14:00S 53°06' W 070°54'0 0.0 250 / 291005.9 11.5 -0.0
2018-Dec-17 13:00S 53°06' W 070°54'0 0.0 250 / 341005.6 10.8 -0.0
2018-Dec-17 12:00S 53°06' W 070°54'0 0.0 250 / 331005.3 10.4 -0.0
2018-Dec-17 11:00S 53°06' W 070°54'0 0.0 250 / 261004.8 9.6 -0.0
2018-Dec-17 10:00S 53°06' W 070°54'0 0.0 240 / 251004.1 8.8 -0.0
2018-Dec-17 09:00S 53°06' W 070°54'0 0.0 250 / 301002.6 8.5 -0.0
2018-Dec-17 08:00S 53°06' W 070°54'0 0.0 250 / 261002.9 8.2 -0.0
2018-Dec-17 07:00S 53°06' W 070°54'0 0.0 260 / 181003.3 8.2 -0.0
2018-Dec-17 06:00S 53°06' W 070°54'0 0.0 260 / 151003.8 8.4 -0.0
2018-Dec-17 05:00S 53°06' W 070°54'0 0.0 250 / 131003.9 8.4 -0.0
2018-Dec-17 04:00S 53°06' W 070°54'0 0.0 260 / 251003.5 8.6 -0.0
2018-Dec-17 03:00S 53°06' W 070°54'0 0.0 270 / 171004.3 8.2 -0.0
2018-Dec-17 02:00S 53°06' W 070°54'0 0.0 260 / 121004.9 8.1 -0.0
2018-Dec-17 01:00S 53°06' W 070°54'0 0.0 270 / 111005.1 7.8 -0.0
2018-Dec-17 00:00S 53°06' W 070°54'0 0.0 270 / 171005.6 7.5 -0.0
2018-Dec-16 23:00S 53°06' W 070°54'0 0.0 270 / 181005.5 8.1 -0.0
2018-Dec-16 22:00S 53°06' W 070°54'0 0.0 270 / 201005.4 8.2 -0.0
2018-Dec-16 21:00S 53°06' W 070°54'0 0.0 270 / 221004.7 9.4 -0.0
2018-Dec-16 20:00S 53°06' W 070°54'0 0.0 250 / 181004.6 9.2 -0.0
2018-Dec-16 19:00S 53°06' W 070°54'0 0.0 240 / 231004.1 8.6 -0.0
2018-Dec-16 18:00S 53°06' W 070°54'0 0.0 250 / 241003.4 8.7 -0.0
2018-Dec-16 17:00S 53°06' W 070°54'0 0.0 250 / 251002.4 9.0 -0.0
2018-Dec-16 16:00S 53°06' W 070°54'0 0.0 240 / 251001.7 8.5 -0.0
2018-Dec-16 15:00S 53°06' W 070°54'0 0.0 240 / 271000.5 8.2 -0.0
2018-Dec-16 14:00S 53°06' W 070°54'0 0.0 240 / 26999.9 7.5 -0.0
2018-Dec-16 13:00S 53°06' W 070°54'0 0.0 240 / 21999.2 7.3 -0.0
2018-Dec-16 12:00S 53°06' W 070°54'0 0.0 240 / 16998.6 6.4 -0.0
2018-Dec-16 11:00S 53°06' W 070°54'0 0.0 260 / 11997.3 5.6 -0.0
2018-Dec-16 10:00S 53°06' W 070°54'0 0.0 220 / 16996.1 4.4 -0.0
2018-Dec-16 09:00S 53°06' W 070°54'0 0.0 260 / 15994.3 5.3 -0.0
2018-Dec-16 08:00S 53°06' W 070°54'0 0.0 270 / 9993.4 5.3 -0.0
2018-Dec-16 07:00S 53°06' W 070°54'0 0.0 270 / 10992.7 5.2 -0.0
2018-Dec-16 06:00S 53°06' W 070°54'0 0.0 260 / 12991.6 5.4 -0.0
2018-Dec-16 05:00S 53°06' W 070°54'0 0.0 240 / 15990.2 5.8 -0.0
2018-Dec-16 04:00S 53°06' W 070°54'0 0.0 230 / 17988.5 5.5 -0.0
2018-Dec-16 03:00S 53°06' W 070°54'0 0.0 230 / 21985.6 6.4 -0.0
2018-Dec-16 02:00S 53°06' W 070°54'0 0.0 220 / 23983.4 7.1 -0.0
2018-Dec-16 01:00S 53°06' W 070°54'0 0.0 240 / 28980.2 9.0 -0.0
2018-Dec-16 00:00S 53°06' W 070°54'0 0.0 280 / 31975.8 11.1 -0.0
2018-Dec-15 23:00S 53°06' W 070°54'0 0.0 280 / 38975.6 12.8 -0.0
2018-Dec-15 22:00S 53°06' W 070°54'0 0.0 260 / 32976.9 15.6 -0.0
2018-Dec-15 21:00S 53°06' W 070°54'0 0.0 260 / 32976.9 15.6 -0.0
2018-Dec-15 20:00S 53°06' W 070°54'0 0.0 280 / 21977.3 15.8 -0.0
2018-Dec-15 19:00S 53°06' W 070°54'0 0.0 290 / 20979.4 15.8 -0.0
2018-Dec-15 18:00S 53°06' W 070°54'0 0.0 290 / 20979.4 15.8 -0.0
2018-Dec-15 17:00S 53°06' W 070°54'0 0.0 290 / 20979.4 15.8 -0.0
2018-Dec-15 16:00S 53°06' W 070°54'0 0.0 290 / 20979.4 15.8 -0.0
2018-Dec-15 15:00S 53°06' W 070°54'0 0.0 290 / 20979.4 15.8 -0.0
2018-Dec-15 14:00S 53°06' W 070°54'0 0.0 290 / 20979.4 15.8 -0.0
2018-Dec-15 13:00S 53°06' W 070°54'0 0.0 290 / 20979.4 15.8 -0.0
2018-Dec-15 12:00S 53°06' W 070°54'0 0.0 320 / 20980.2 15.6 -0.0
2018-Dec-15 11:00S 53°06' W 070°54'0 0.0 982.0 14.9 -0.0
2018-Dec-15 10:00S 53°06' W 070°54'0 0.0 010 / 16983.6 14.6 -0.0
2018-Dec-15 09:00S 53°06' W 070°54'0 0.0 020 / 16985.0 14.2 -0.0
2018-Dec-15 08:00S 53°06' W 070°54'0 0.0 020 / 13986.6 13.7 -0.0
2018-Dec-15 07:00S 53°06' W 070°54'0 0.0 030 / 13988.4 12.5 -0.0
2018-Dec-15 06:00S 53°06' W 070°54'0 0.0 030 / 15990.1 12.4 -0.0
2018-Dec-15 05:00S 53°06' W 070°54'0 0.0 010 / 11991.9 13.8 -0.0
2018-Dec-15 04:00S 53°06' W 070°54'0 0.0 350 / 11992.8 12.9 -0.0
2018-Dec-15 03:00S 53°06' W 070°54'0 0.0 340 / 11994.1 12.5 -0.0
2018-Dec-15 02:00S 53°06' W 070°54'0 0.0 310 / 17994.8 12.3 -0.0
2018-Dec-15 01:00S 53°06' W 070°54'0 0.0 300 / 19995.2 12.2 -0.0
2018-Dec-15 00:00S 53°06' W 070°54'0 0.0 300 / 21995.4 12.7 -0.0
2018-Dec-14 23:00S 53°06' W 070°54'0 0.0 300 / 24995.5 12.7 -0.0
2018-Dec-14 22:00S 53°06' W 070°54'0 0.0 300 / 24995.9 12.5 -0.0
2018-Dec-14 21:00S 53°06' W 070°54'0 0.0 300 / 28996.2 12.4 -0.0
2018-Dec-14 20:00S 53°06' W 070°54'0 0.0 300 / 28996.5 12.3 -0.0
2018-Dec-14 19:00S 53°06' W 070°54'0 0.0 310 / 19997.2 11.4 -0.0
2018-Dec-14 18:00S 53°06' W 070°54'0 0.0 320 / 14998.2 10.9 -0.0
2018-Dec-14 17:00S 53°06' W 070°54'0 0.0 320 / 12998.9 10.8 -0.0
2018-Dec-14 16:00S 53°06' W 070°54'0 0.0 330 / 15999.4 10.8 -0.0
2018-Dec-14 15:00S 53°06' W 070°54'0 0.0 330 / 19999.7 10.5 -0.0
2018-Dec-14 14:00S 53°06' W 070°54'0 0.0 330 / 191000.3 10.0 -0.0
2018-Dec-14 13:00S 53°06' W 070°54'0 0.0 350 / 141001.1 9.4 -0.0
2018-Dec-14 12:00S 53°06' W 070°54'0 0.0 020 / 101002.0 8.4 -0.0
2018-Dec-14 11:00S 53°06' W 070°54'0 0.0 020 / 131002.5 8.0 -0.0
2018-Dec-14 10:00S 53°06' W 070°54'0 0.0 010 / 121003.1 7.7 -0.0
2018-Dec-14 09:00S 53°06' W 070°54'0 0.0 010 / 91003.6 6.5 -0.0
2018-Dec-14 08:00S 53°06' W 070°54'0 0.0 010 / 81004.1 6.3 -0.0
2018-Dec-14 07:00S 53°06' W 070°54'0 0.0 330 / 71004.9 6.4 -0.0
2018-Dec-14 06:00S 53°06' W 070°54'0 0.0 310 / 61005.7 6.2 -0.0
2018-Dec-14 05:00S 53°06' W 070°54'0 0.0 290 / 51006.3 6.1 -0.0
2018-Dec-14 04:00S 53°06' W 070°54'0 0.0 270 / 71006.6 7.0 -0.0
2018-Dec-14 03:00S 53°06' W 070°54'0 0.0
2018-Dec-14 02:00S 53°06' W 070°54'0 0.0 250 / 71006.3 8.9 -0.0
2018-Dec-14 01:00S 53°06' W 070°54'0 0.0 250 / 71005.9 10.0 -0.0
2018-Dec-14 00:00S 53°06' W 070°54'0 0.0 250 / 71005.3 10.9 -0.0
2018-Dec-13 23:00S 53°06' W 070°54'0 0.0 250 / 71004.6 12.2 -0.0
2018-Dec-13 22:00S 53°06' W 070°54'0 0.0 250 / 71003.8 12.7 -0.0
2018-Dec-13 21:00S 53°06' W 070°54'0 0.0 240 / 81003.2 12.7 -0.0
2018-Dec-13 20:00S 53°06' W 070°54'0 0.0 250 / 91002.6 13.0 -0.0
2018-Dec-13 19:00S 53°06' W 070°54'0 0.0 250 / 81002.3 13.2 -0.0
2018-Dec-13 18:00S 53°06' W 070°54'0 0.0 240 / 81001.8 13.2 -0.0
2018-Dec-13 17:00S 53°06' W 070°54'0 0.0 240 / 81001.5 13.1 -0.0
2018-Dec-13 16:00S 53°06' W 070°54'0 0.0 240 / 71001.1 13.2 -0.0
2018-Dec-13 15:00S 53°06' W 070°54'0 0.0 230 / 71000.5 12.4 -0.0
2018-Dec-13 14:00S 53°06' W 070°54'0 0.0 220 / 71000.0 11.5 -0.0
2018-Dec-13 13:00S 53°06' W 070°54'0 0.0 250 / 7999.2 11.5 -0.0
2018-Dec-13 12:00S 53°06' W 070°54'0 0.0 250 / 6998.9 11.4 -0.0
2018-Dec-13 11:00S 53°06' W 070°54'0 0.0 270 / 4998.4 11.2 -0.0
2018-Dec-13 10:00S 53°06' W 070°54'0 0.0 040 / 4997.9 10.3 -0.0
2018-Dec-13 09:00S 53°06' W 070°54'0 0.0 030 / 7997.4 10.5 -0.0
2018-Dec-13 08:00S 53°06' W 070°54'0 0.0 020 / 4997.0 10.6 -0.0
2018-Dec-13 07:00S 53°06' W 070°54'0 0.0 030 / 5997.3 10.5 -0.0
2018-Dec-13 06:00S 53°06' W 070°54'0 0.0 020 / 7997.6 11.2 -0.0
2018-Dec-13 05:00S 53°06' W 070°54'0 0.0 020 / 8998.2 11.6 -0.0
2018-Dec-13 04:00S 53°06' W 070°54'0 0.0 030 / 5998.6 11.3 -0.0
2018-Dec-13 03:00S 53°06' W 070°54'0 0.0 350 / 6999.2 11.6 -0.0
2018-Dec-13 02:00S 53°06' W 070°54'0 0.0 050 / 6999.3 10.6 -0.0
2018-Dec-13 01:00S 53°06' W 070°54'0 0.0 240 / 7999.0 12.4 -0.0
2018-Dec-13 00:00S 53°06' W 070°54'0 0.0 280 / 8999.3 13.7 -0.0
2018-Dec-12 23:00S 53°06' W 070°54'0 0.0 310 / 11999.1 15.4 -0.0
2018-Dec-12 22:00S 53°06' W 070°54'0 0.0 330 / 11999.2 15.9 -0.0
2018-Dec-12 21:00S 53°06' W 070°54'0 0.0 350 / 12999.6 16.0 -0.0
2018-Dec-12 20:00S 53°06' W 070°54'0 0.0 340 / 13999.8 15.7 -0.0
2018-Dec-12 19:00S 53°06' W 070°54'0 0.0 350 / 141000.3 15.3 -0.0
2018-Dec-12 18:00S 53°06' W 070°54'0 0.0 340 / 151000.5 14.7 -0.0
2018-Dec-12 17:00S 53°06' W 070°54'0 0.0 340 / 131001.1 14.4 -0.0
2018-Dec-12 16:00S 53°06' W 070°54'0 0.0 350 / 131001.4 13.7 -0.0
2018-Dec-12 15:00S 53°06' W 070°54'0 0.0 350 / 131001.6 13.2 -0.0
2018-Dec-12 14:00S 53°06' W 070°54'4 3.6 1001.9 12.8 -0.0
2018-Dec-12 13:00S 53°06' W 070°48'9 9.4 010 / 121002.6 10.4 -0.0
2018-Dec-12 12:00S 53°00' W 070°36'9 9.4 360 / 151003.2 9.9 -0.0
2018-Dec-12 11:00S 52°54' W 070°24'1212.0 340 / 211003.7 9.4 -0.0
2018-Dec-12 10:00S 52°42' W 070°24'7 7.3 340 / 181004.1 9.4 -0.0
2018-Dec-12 09:00S 52°42' W 070°12'1212.5 340 / 181004.1 10.0 -0.0
2018-Dec-12 08:00S 52°36' W 069°54'1212.5 340 / 111004.7 9.7 -0.0
2018-Dec-12 07:00S 52°30' W 069°36'1616.3 330 / 91005.6 9.5 -0.0
2018-Dec-12 06:00S 52°18' W 069°18'1111.0 330 / 141006.0 9.4 -0.0
2018-Dec-12 05:00S 52°18' W 069°00'1312.5 320 / 161006.3 10.0 -0.0
2018-Dec-12 04:00S 52°24' W 068°42'9 9.5 300 / 211006.1 10.2 -0.0
2018-Dec-12 03:00S 52°30' W 068°30'1212.5 290 / 171006.1 9.8 -0.0
2018-Dec-12 02:00S 52°36' W 068°12'1110.9 280 / 141006.2 9.7 -0.0
2018-Dec-12 01:00S 52°36' W 067°54'1414.0 260 / 161005.6 9.9 -0.0
2018-Dec-12 00:00S 52°24' W 067°42'9 9.5 260 / 181005.5 9.9 -0.0
2018-Dec-11 23:00S 52°18' W 067°30'7 7.0 260 / 221005.0 10.0 -0.0
2018-Dec-11 22:00S 52°12' W 067°24'1414.1 250 / 241004.8 10.0 -0.0
2018-Dec-11 21:00S 52°00' W 067°12'1312.6 240 / 201004.8 9.7 -0.0
2018-Dec-11 20:00S 51°48' W 067°06'0 0.0 240 / 231004.4 9.4 -0.0
2018-Dec-11 19:00S 51°48' W 067°06'8510.6 230 / 241004.0 9.4 -0.0
2018-Dec-11 11:00S 50°30' W 066°12'7 7.1 230 / 191000.3 11.8 22.2
2018-Dec-11 10:00S 50°24' W 066°06'1312.6 220 / 12999.3 12.1 22.2
2018-Dec-11 09:00S 50°12' W 066°00'1312.6 240 / 12998.2 12.8 22.2
2018-Dec-11 08:00S 50°00' W 065°54'7 7.1 250 / 10997.4 13.7 22.2
2018-Dec-11 07:00S 49°54' W 065°48'1312.6 270 / 8996.9 14.1 22.2
2018-Dec-11 06:00S 49°42' W 065°42'7 7.1 240 / 10996.8 14.4 22.2
2018-Dec-11 05:00S 49°36' W 065°36'1312.6 240 / 12996.6 13.9 22.2
2018-Dec-11 04:00S 49°24' W 065°30'7 7.2 270 / 17996.7 15.3 22.2
2018-Dec-11 03:00S 49°18' W 065°24'1312.6 290 / 22996.3 16.5 22.2
2018-Dec-11 02:00S 49°06' W 065°18'1312.6 300 / 20996.2 17.2 22.2
2018-Dec-11 01:00S 48°54' W 065°12'10 9.9 310 / 13996.6 17.9 22.2
2018-Dec-11 00:00S 48°48' W 065°00'1312.6 270 / 4996.5 16.7 22.2
2018-Dec-10 23:00S 48°36' W 064°54'1312.6 040 / 7995.6 15.3 22.2
2018-Dec-10 22:00S 48°24' W 064°48'7 7.2 010 / 12995.5 15.0 22.2
2018-Dec-10 21:00S 48°18' W 064°42'1312.6 360 / 12996.0 14.1 22.2
2018-Dec-10 20:00S 48°06' W 064°36'7 7.2 350 / 13996.6 13.8 22.2
2018-Dec-10 19:00S 48°00' W 064°30'1312.7 330 / 12997.2 13.5 22.2
2018-Dec-10 18:00S 47°48' W 064°24'7 7.2 330 / 18997.8 13.7 22.2
2018-Dec-10 17:00S 47°42' W 064°18'1312.7 320 / 22998.3 13.9 22.2
2018-Dec-10 16:00S 47°30' W 064°12'1312.7 320 / 21998.9 14.0 22.2
2018-Dec-10 15:00S 47°18' W 064°06'7 7.3 310 / 21999.6 14.3 22.2
2018-Dec-10 14:00S 47°12' W 064°00'1312.7 310 / 161000.4 14.1 22.2
2018-Dec-10 13:00S 47°00' W 063°54'1312.7 300 / 181000.9 14.1 22.2
2018-Dec-10 12:00S 46°48' W 063°48'7 7.3 290 / 211001.1 14.9 22.2
2018-Dec-10 11:00S 46°42' W 063°42'1312.7 290 / 221000.9 15.7 22.2
2018-Dec-10 10:00S 46°30' W 063°36'7 7.3 300 / 171001.3 15.8 22.2
2018-Dec-10 09:00S 46°24' W 063°30'1312.7 300 / 161001.9 15.3 22.2
2018-Dec-10 08:00S 46°12' W 063°24'1312.7 320 / 131002.3 15.0 22.2
2018-Dec-10 07:00S 46°00' W 063°18'7 7.3 350 / 101002.9 14.6 22.2
2018-Dec-10 06:00S 45°54' W 063°12'1312.7 1003.5 14.5 22.2
2018-Dec-10 05:00S 45°42' W 063°06'1312.7 340 / 91004.4 14.3 22.2
2018-Dec-10 04:00S 45°30' W 063°00'7 7.3 330 / 111004.8 14.1 22.2
2018-Dec-10 03:00S 45°24' W 062°54'1312.7 310 / 121004.9 14.1 22.2
2018-Dec-10 02:00S 45°12' W 062°48'7 7.3 310 / 111005.0 14.2 22.2
2018-Dec-10 01:00S 45°06' W 062°42'1312.7 310 / 51004.5 14.3 22.2
2018-Dec-10 00:00S 44°54' W 062°36'1312.7 200 / 41003.9 14.5 22.2
2018-Dec-09 23:00S 44°42' W 062°30'7 7.4 210 / 81003.9 14.6 22.2
2018-Dec-09 22:00S 44°36' W 062°24'1312.7 220 / 101004.0 14.4 22.2
2018-Dec-09 21:00S 44°24' W 062°18'7 7.4 240 / 141004.1 14.3 22.2
2018-Dec-09 20:00S 44°18' W 062°12'1312.7 240 / 151004.0 14.3 22.2
2018-Dec-09 19:00S 44°06' W 062°06'6 6.0 240 / 191003.7 14.3 22.2
2018-Dec-09 18:00S 44°00' W 062°06'1312.8 250 / 231003.0 14.2 22.2
2018-Dec-09 17:00S 43°48' W 062°00'7 7.4 250 / 191003.0 14.3 22.2
2018-Dec-09 16:00S 43°42' W 061°54'1514.8 250 / 161003.0 14.5 22.2
2018-Dec-09 15:00S 43°30' W 061°42'7 7.4 260 / 131002.8 14.6 22.2
2018-Dec-09 14:00S 43°24' W 061°36'7 7.4 250 / 141002.4 15.0 22.2
2018-Dec-09 13:00S 43°18' W 061°30'1312.8 250 / 151002.1 15.1 22.2
2018-Dec-09 12:00S 43°06' W 061°24'1110.6 260 / 161001.8 15.2 22.2
2018-Dec-09 11:00S 43°00' W 061°12'   260 / 201000.9 15.8 22.2
Track history (hours):
 
Tides and Currents Weather Stations Pressure Air Temp Water Temp Dewpoint Dewpoint Depression Visibility Wind Speed Wind Dir Waves Ship Positions

Oceanographic research ship Nathaniel B. Palmer (USA)

Contact: Ethan Norris, ethan.norris.contractor@usap.gov

Detailed information on ship capabilities available from University of Delaware's Ocean Information Center and ARCUS's ALIAS (Arctic Logistics Information and Support) project.

Owner: OFFSHORE SERVICE VESSELS, Cut Off, LA. More information available from US FCC via Universal Licensing System and Coast Guard Vessel Documentation Center.

Last reported at 2018-Dec-19 11:00 UTC. Time now 2018-Dec-19 12:13 UTC.
Position S 53°06' W 070°54'.

Type: Other ship. MMSI: 366610000.

Wind from 070 at 4 knots

Barometer 1010.2 mb
Air temperature 8.8 ° C
Water temperature -0.0 ° C

Date/timePositionNaut miles runAvg speedWind from/ knotsBaromVisibWave heightAir tempDewpointWater temp
2018-Dec-19 11:00S 53°06' W 070°54'0 0.0 070 / 41010.2 8.8 -0.0
2018-Dec-19 10:00S 53°06' W 070°54'0 0.0 090 / 11009.9 8.6 -0.0
2018-Dec-19 09:00S 53°06' W 070°54'0 0.0 190 / 11009.4 8.3 -0.0
2018-Dec-19 08:00S 53°06' W 070°54'0 0.0 160 / 31008.7 8.3 -0.0
2018-Dec-19 07:00S 53°06' W 070°54'0 0.0 180 / 61008.0 8.3 -0.0
2018-Dec-19 06:00S 53°06' W 070°54'0 0.0 200 / 61007.7 8.4 -0.0
2018-Dec-19 05:00S 53°06' W 070°54'0 0.0 200 / 81007.2 8.5 -0.0
2018-Dec-19 04:00S 53°06' W 070°54'0 0.0 190 / 71006.6 8.7 -0.0
2018-Dec-19 03:00S 53°06' W 070°54'0 0.0 170 / 61006.0 9.2 -0.0
2018-Dec-19 02:00S 53°06' W 070°54'0 0.0 190 / 31005.4 9.6 -0.0
2018-Dec-19 01:00S 53°06' W 070°54'0 0.0 180 / 21004.6 10.0 -0.0
2018-Dec-19 00:00S 53°06' W 070°54'0 0.0 170 / 21003.7 10.2 -0.0
2018-Dec-18 23:00S 53°06' W 070°54'0 0.0 180 / 41002.9 10.4 -0.0
2018-Dec-18 22:00S 53°06' W 070°54'0 0.0 110 / 21002.1 10.4 -0.0
2018-Dec-18 21:00S 53°06' W 070°54'0 0.0 080 / 61001.5 10.1 -0.0
2018-Dec-18 20:00S 53°06' W 070°54'0 0.0 150 / 101000.9 12.8 -0.0
2018-Dec-18 19:00S 53°06' W 070°54'0 0.0 260 / 161000.4 15.2 -0.0
2018-Dec-18 18:00S 53°06' W 070°54'0 0.0 270 / 141000.0 15.1 -0.0
2018-Dec-18 17:00S 53°06' W 070°54'0 0.0 260 / 161000.1 14.7 -0.0
2018-Dec-18 16:00S 53°06' W 070°54'0 0.0 270 / 141000.4 14.0 -0.0
2018-Dec-18 15:00S 53°06' W 070°54'0 0.0 290 / 101000.6 13.1 -0.0
2018-Dec-18 14:00S 53°06' W 070°54'0 0.0 290 / 121001.3 12.2 -0.0
2018-Dec-18 13:00S 53°06' W 070°54'0 0.0 300 / 131001.8 11.3 -0.0
2018-Dec-18 12:00S 53°06' W 070°54'0 0.0 300 / 91002.4 10.3 -0.0
2018-Dec-18 11:00S 53°06' W 070°54'0 0.0 310 / 71003.3 9.4 -0.0
2018-Dec-18 10:00S 53°06' W 070°54'0 0.0 300 / 81004.3 9.3 -0.0
2018-Dec-18 09:00S 53°06' W 070°54'0 0.0 290 / 81005.1 9.4 -0.0
2018-Dec-18 08:00S 53°06' W 070°54'0 0.0 270 / 181005.3 10.1 -0.0
2018-Dec-18 07:00S 53°06' W 070°54'0 0.0 270 / 191006.0 10.1 -0.0
2018-Dec-18 06:00S 53°06' W 070°54'0 0.0 280 / 181006.4 10.4 -0.0
2018-Dec-18 05:00S 53°06' W 070°54'0 0.0 270 / 221006.8 10.5 -0.0
2018-Dec-18 04:00S 53°06' W 070°54'0 0.0 270 / 171007.6 10.5 -0.0
2018-Dec-18 03:00S 53°06' W 070°54'0 0.0 280 / 161008.3 10.3 -0.0
2018-Dec-18 02:00S 53°06' W 070°54'0 0.0 270 / 181008.3 10.6 -0.0
2018-Dec-18 01:00S 53°06' W 070°54'0 0.0 300 / 91008.7 10.9 -0.0
2018-Dec-18 00:00S 53°06' W 070°54'0 0.0 250 / 191008.2 11.0 -0.0
2018-Dec-17 23:00S 53°06' W 070°54'0 0.0 260 / 191008.8 11.3 -0.0
2018-Dec-17 22:00S 53°06' W 070°54'0 0.0 280 / 191008.9 11.6 -0.0
2018-Dec-17 21:00S 53°06' W 070°54'0 0.0 270 / 161008.8 11.9 -0.0
2018-Dec-17 20:00S 53°06' W 070°54'0 0.0 260 / 161008.3 12.9 -0.0
2018-Dec-17 19:00S 53°06' W 070°54'0 0.0 250 / 181007.8 13.0 -0.0
2018-Dec-17 18:00S 53°06' W 070°54'0 0.0 260 / 161007.9 13.1 -0.0
2018-Dec-17 17:00S 53°06' W 070°54'0 0.0 260 / 191008.0 12.3 -0.0
2018-Dec-17 16:00S 53°06' W 070°54'0 0.0 250 / 301007.1 12.1 -0.0
2018-Dec-17 15:00S 53°06' W 070°54'0 0.0 250 / 281006.9 11.5 -0.0
2018-Dec-17 14:00S 53°06' W 070°54'0 0.0 250 / 291005.9 11.5 -0.0
2018-Dec-17 13:00S 53°06' W 070°54'0 0.0 250 / 341005.6 10.8 -0.0
2018-Dec-17 12:00S 53°06' W 070°54'0 0.0 250 / 331005.3 10.4 -0.0
2018-Dec-17 11:00S 53°06' W 070°54'0 0.0 250 / 261004.8 9.6 -0.0
2018-Dec-17 10:00S 53°06' W 070°54'0 0.0 240 / 251004.1 8.8 -0.0
2018-Dec-17 09:00S 53°06' W 070°54'0 0.0 250 / 301002.6 8.5 -0.0
2018-Dec-17 08:00S 53°06' W 070°54'0 0.0 250 / 261002.9 8.2 -0.0
2018-Dec-17 07:00S 53°06' W 070°54'0 0.0 260 / 181003.3 8.2 -0.0
2018-Dec-17 06:00S 53°06' W 070°54'0 0.0 260 / 151003.8 8.4 -0.0
2018-Dec-17 05:00S 53°06' W 070°54'0 0.0 250 / 131003.9 8.4 -0.0
2018-Dec-17 04:00S 53°06' W 070°54'0 0.0 260 / 251003.5 8.6 -0.0
2018-Dec-17 03:00S 53°06' W 070°54'0 0.0 270 / 171004.3 8.2 -0.0
2018-Dec-17 02:00S 53°06' W 070°54'0 0.0 260 / 121004.9 8.1 -0.0
2018-Dec-17 01:00S 53°06' W 070°54'0 0.0 270 / 111005.1 7.8 -0.0
2018-Dec-17 00:00S 53°06' W 070°54'0 0.0 270 / 171005.6 7.5 -0.0
2018-Dec-16 23:00S 53°06' W 070°54'0 0.0 270 / 181005.5 8.1 -0.0
2018-Dec-16 22:00S 53°06' W 070°54'0 0.0 270 / 201005.4 8.2 -0.0
2018-Dec-16 21:00S 53°06' W 070°54'0 0.0 270 / 221004.7 9.4 -0.0
2018-Dec-16 20:00S 53°06' W 070°54'0 0.0 250 / 181004.6 9.2 -0.0
2018-Dec-16 19:00S 53°06' W 070°54'0 0.0 240 / 231004.1 8.6 -0.0
2018-Dec-16 18:00S 53°06' W 070°54'0 0.0 250 / 241003.4 8.7 -0.0
2018-Dec-16 17:00S 53°06' W 070°54'0 0.0 250 / 251002.4 9.0 -0.0
2018-Dec-16 16:00S 53°06' W 070°54'0 0.0 240 / 251001.7 8.5 -0.0
2018-Dec-16 15:00S 53°06' W 070°54'0 0.0 240 / 271000.5 8.2 -0.0
2018-Dec-16 14:00S 53°06' W 070°54'0 0.0 240 / 26999.9 7.5 -0.0
2018-Dec-16 13:00S 53°06' W 070°54'0 0.0 240 / 21999.2 7.3 -0.0
2018-Dec-16 12:00S 53°06' W 070°54'0 0.0 240 / 16998.6 6.4 -0.0
2018-Dec-16 11:00S 53°06' W 070°54'0 0.0 260 / 11997.3 5.6 -0.0
2018-Dec-16 10:00S 53°06' W 070°54'0 0.0 220 / 16996.1 4.4 -0.0
2018-Dec-16 09:00S 53°06' W 070°54'0 0.0 260 / 15994.3 5.3 -0.0
2018-Dec-16 08:00S 53°06' W 070°54'0 0.0 270 / 9993.4 5.3 -0.0
2018-Dec-16 07:00S 53°06' W 070°54'0 0.0 270 / 10992.7 5.2 -0.0
2018-Dec-16 06:00S 53°06' W 070°54'0 0.0 260 / 12991.6 5.4 -0.0
2018-Dec-16 05:00S 53°06' W 070°54'0 0.0 240 / 15990.2 5.8 -0.0
2018-Dec-16 04:00S 53°06' W 070°54'0 0.0 230 / 17988.5 5.5 -0.0
2018-Dec-16 03:00S 53°06' W 070°54'0 0.0 230 / 21985.6 6.4 -0.0
2018-Dec-16 02:00S 53°06' W 070°54'0 0.0 220 / 23983.4 7.1 -0.0
2018-Dec-16 01:00S 53°06' W 070°54'0 0.0 240 / 28980.2 9.0 -0.0
2018-Dec-16 00:00S 53°06' W 070°54'0 0.0 280 / 31975.8 11.1 -0.0
2018-Dec-15 23:00S 53°06' W 070°54'0 0.0 280 / 38975.6 12.8 -0.0
2018-Dec-15 22:00S 53°06' W 070°54'0 0.0 260 / 32976.9 15.6 -0.0
2018-Dec-15 21:00S 53°06' W 070°54'0 0.0 260 / 32976.9 15.6 -0.0
2018-Dec-15 20:00S 53°06' W 070°54'0 0.0 280 / 21977.3 15.8 -0.0
2018-Dec-15 19:00S 53°06' W 070°54'0 0.0 290 / 20979.4 15.8 -0.0
2018-Dec-15 18:00S 53°06' W 070°54'0 0.0 290 / 20979.4 15.8 -0.0
2018-Dec-15 17:00S 53°06' W 070°54'0 0.0 290 / 20979.4 15.8 -0.0
2018-Dec-15 16:00S 53°06' W 070°54'0 0.0 290 / 20979.4 15.8 -0.0
2018-Dec-15 15:00S 53°06' W 070°54'0 0.0 290 / 20979.4 15.8 -0.0
2018-Dec-15 14:00S 53°06' W 070°54'0 0.0 290 / 20979.4 15.8 -0.0
2018-Dec-15 13:00S 53°06' W 070°54'0 0.0 290 / 20979.4 15.8 -0.0
2018-Dec-15 12:00S 53°06' W 070°54'0 0.0 320 / 20980.2 15.6 -0.0
2018-Dec-15 11:00S 53°06' W 070°54'0 0.0 982.0 14.9 -0.0
2018-Dec-15 10:00S 53°06' W 070°54'0 0.0 010 / 16983.6 14.6 -0.0
2018-Dec-15 09:00S 53°06' W 070°54'0 0.0 020 / 16985.0 14.2 -0.0
2018-Dec-15 08:00S 53°06' W 070°54'0 0.0 020 / 13986.6 13.7 -0.0
2018-Dec-15 07:00S 53°06' W 070°54'0 0.0 030 / 13988.4 12.5 -0.0
2018-Dec-15 06:00S 53°06' W 070°54'0 0.0 030 / 15990.1 12.4 -0.0
2018-Dec-15 05:00S 53°06' W 070°54'0 0.0 010 / 11991.9 13.8 -0.0
2018-Dec-15 04:00S 53°06' W 070°54'0 0.0 350 / 11992.8 12.9 -0.0
2018-Dec-15 03:00S 53°06' W 070°54'0 0.0 340 / 11994.1 12.5 -0.0
2018-Dec-15 02:00S 53°06' W 070°54'0 0.0 310 / 17994.8 12.3 -0.0
2018-Dec-15 01:00S 53°06' W 070°54'0 0.0 300 / 19995.2 12.2 -0.0
2018-Dec-15 00:00S 53°06' W 070°54'0 0.0 300 / 21995.4 12.7 -0.0
2018-Dec-14 23:00S 53°06' W 070°54'0 0.0 300 / 24995.5 12.7 -0.0
2018-Dec-14 22:00S 53°06' W 070°54'0 0.0 300 / 24995.9 12.5 -0.0
2018-Dec-14 21:00S 53°06' W 070°54'0 0.0 300 / 28996.2 12.4 -0.0
2018-Dec-14 20:00S 53°06' W 070°54'0 0.0 300 / 28996.5 12.3 -0.0
2018-Dec-14 19:00S 53°06' W 070°54'0 0.0 310 / 19997.2 11.4 -0.0
2018-Dec-14 18:00S 53°06' W 070°54'0 0.0 320 / 14998.2 10.9 -0.0
2018-Dec-14 17:00S 53°06' W 070°54'0 0.0 320 / 12998.9 10.8 -0.0
2018-Dec-14 16:00S 53°06' W 070°54'0 0.0 330 / 15999.4 10.8 -0.0
2018-Dec-14 15:00S 53°06' W 070°54'0 0.0 330 / 19999.7 10.5 -0.0
2018-Dec-14 14:00S 53°06' W 070°54'0 0.0 330 / 191000.3 10.0 -0.0
2018-Dec-14 13:00S 53°06' W 070°54'0 0.0 350 / 141001.1 9.4 -0.0
2018-Dec-14 12:00S 53°06' W 070°54'0 0.0 020 / 101002.0 8.4 -0.0
2018-Dec-14 11:00S 53°06' W 070°54'0 0.0 020 / 131002.5 8.0 -0.0
2018-Dec-14 10:00S 53°06' W 070°54'0 0.0 010 / 121003.1 7.7 -0.0
2018-Dec-14 09:00S 53°06' W 070°54'0 0.0 010 / 91003.6 6.5 -0.0
2018-Dec-14 08:00S 53°06' W 070°54'0 0.0 010 / 81004.1 6.3 -0.0
2018-Dec-14 07:00S 53°06' W 070°54'0 0.0 330 / 71004.9 6.4 -0.0
2018-Dec-14 06:00S 53°06' W 070°54'0 0.0 310 / 61005.7 6.2 -0.0
2018-Dec-14 05:00S 53°06' W 070°54'0 0.0 290 / 51006.3 6.1 -0.0
2018-Dec-14 04:00S 53°06' W 070°54'0 0.0 270 / 71006.6 7.0 -0.0
2018-Dec-14 03:00S 53°06' W 070°54'0 0.0
2018-Dec-14 02:00S 53°06' W 070°54'0 0.0 250 / 71006.3 8.9 -0.0
2018-Dec-14 01:00S 53°06' W 070°54'0 0.0 250 / 71005.9 10.0 -0.0
2018-Dec-14 00:00S 53°06' W 070°54'0 0.0 250 / 71005.3 10.9 -0.0
2018-Dec-13 23:00S 53°06' W 070°54'0 0.0 250 / 71004.6 12.2 -0.0
2018-Dec-13 22:00S 53°06' W 070°54'0 0.0 250 / 71003.8 12.7 -0.0
2018-Dec-13 21:00S 53°06' W 070°54'0 0.0 240 / 81003.2 12.7 -0.0
2018-Dec-13 20:00S 53°06' W 070°54'0 0.0 250 / 91002.6 13.0 -0.0
2018-Dec-13 19:00S 53°06' W 070°54'0 0.0 250 / 81002.3 13.2 -0.0
2018-Dec-13 18:00S 53°06' W 070°54'0 0.0 240 / 81001.8 13.2 -0.0
2018-Dec-13 17:00S 53°06' W 070°54'0 0.0 240 / 81001.5 13.1 -0.0
2018-Dec-13 16:00S 53°06' W 070°54'0 0.0 240 / 71001.1 13.2 -0.0
2018-Dec-13 15:00S 53°06' W 070°54'0 0.0 230 / 71000.5 12.4 -0.0
2018-Dec-13 14:00S 53°06' W 070°54'0 0.0 220 / 71000.0 11.5 -0.0
2018-Dec-13 13:00S 53°06' W 070°54'0 0.0 250 / 7999.2 11.5 -0.0
2018-Dec-13 12:00S 53°06' W 070°54'0 0.0 250 / 6998.9 11.4 -0.0
2018-Dec-13 11:00S 53°06' W 070°54'0 0.0 270 / 4998.4 11.2 -0.0
2018-Dec-13 10:00S 53°06' W 070°54'0 0.0 040 / 4997.9 10.3 -0.0
2018-Dec-13 09:00S 53°06' W 070°54'0 0.0 030 / 7997.4 10.5 -0.0
2018-Dec-13 08:00S 53°06' W 070°54'0 0.0 020 / 4997.0 10.6 -0.0
2018-Dec-13 07:00S 53°06' W 070°54'0 0.0 030 / 5997.3 10.5 -0.0
2018-Dec-13 06:00S 53°06' W 070°54'0 0.0 020 / 7997.6 11.2 -0.0
2018-Dec-13 05:00S 53°06' W 070°54'0 0.0 020 / 8998.2 11.6 -0.0
2018-Dec-13 04:00S 53°06' W 070°54'0 0.0 030 / 5998.6 11.3 -0.0
2018-Dec-13 03:00S 53°06' W 070°54'0 0.0 350 / 6999.2 11.6 -0.0
2018-Dec-13 02:00S 53°06' W 070°54'0 0.0 050 / 6999.3 10.6 -0.0
2018-Dec-13 01:00S 53°06' W 070°54'0 0.0 240 / 7999.0 12.4 -0.0
2018-Dec-13 00:00S 53°06' W 070°54'0 0.0 280 / 8999.3 13.7 -0.0
2018-Dec-12 23:00S 53°06' W 070°54'0 0.0 310 / 11999.1 15.4 -0.0
2018-Dec-12 22:00S 53°06' W 070°54'0 0.0 330 / 11999.2 15.9 -0.0
2018-Dec-12 21:00S 53°06' W 070°54'0 0.0 350 / 12999.6 16.0 -0.0
2018-Dec-12 20:00S 53°06' W 070°54'0 0.0 340 / 13999.8 15.7 -0.0
2018-Dec-12 19:00S 53°06' W 070°54'0 0.0 350 / 141000.3 15.3 -0.0
2018-Dec-12 18:00S 53°06' W 070°54'0 0.0 340 / 151000.5 14.7 -0.0
2018-Dec-12 17:00S 53°06' W 070°54'0 0.0 340 / 131001.1 14.4 -0.0
2018-Dec-12 16:00S 53°06' W 070°54'0 0.0 350 / 131001.4 13.7 -0.0
2018-Dec-12 15:00S 53°06' W 070°54'0 0.0 350 / 131001.6 13.2 -0.0
2018-Dec-12 14:00S 53°06' W 070°54'4 3.6 1001.9 12.8 -0.0
2018-Dec-12 13:00S 53°06' W 070°48'9 9.4 010 / 121002.6 10.4 -0.0
2018-Dec-12 12:00S 53°00' W 070°36'9 9.4 360 / 151003.2 9.9 -0.0
2018-Dec-12 11:00S 52°54' W 070°24'1212.0 340 / 211003.7 9.4 -0.0
2018-Dec-12 10:00S 52°42' W 070°24'7 7.3 340 / 181004.1 9.4 -0.0
2018-Dec-12 09:00S 52°42' W 070°12'1212.5 340 / 181004.1 10.0 -0.0
2018-Dec-12 08:00S 52°36' W 069°54'1212.5 340 / 111004.7 9.7 -0.0
2018-Dec-12 07:00S 52°30' W 069°36'1616.3 330 / 91005.6 9.5 -0.0
2018-Dec-12 06:00S 52°18' W 069°18'1111.0 330 / 141006.0 9.4 -0.0
2018-Dec-12 05:00S 52°18' W 069°00'1312.5 320 / 161006.3 10.0 -0.0
2018-Dec-12 04:00S 52°24' W 068°42'9 9.5 300 / 211006.1 10.2 -0.0
2018-Dec-12 03:00S 52°30' W 068°30'1212.5 290 / 171006.1 9.8 -0.0
2018-Dec-12 02:00S 52°36' W 068°12'1110.9 280 / 141006.2 9.7 -0.0
2018-Dec-12 01:00S 52°36' W 067°54'1414.0 260 / 161005.6 9.9 -0.0
2018-Dec-12 00:00S 52°24' W 067°42'9 9.5 260 / 181005.5 9.9 -0.0
2018-Dec-11 23:00S 52°18' W 067°30'7 7.0 260 / 221005.0 10.0 -0.0
2018-Dec-11 22:00S 52°12' W 067°24'1414.1 250 / 241004.8 10.0 -0.0
2018-Dec-11 21:00S 52°00' W 067°12'1312.6 240 / 201004.8 9.7 -0.0
2018-Dec-11 20:00S 51°48' W 067°06'0 0.0 240 / 231004.4 9.4 -0.0
2018-Dec-11 19:00S 51°48' W 067°06'8510.6 230 / 241004.0 9.4 -0.0
2018-Dec-11 11:00S 50°30' W 066°12'7 7.1 230 / 191000.3 11.8 22.2
2018-Dec-11 10:00S 50°24' W 066°06'1312.6 220 / 12999.3 12.1 22.2
2018-Dec-11 09:00S 50°12' W 066°00'1312.6 240 / 12998.2 12.8 22.2
2018-Dec-11 08:00S 50°00' W 065°54'7 7.1 250 / 10997.4 13.7 22.2
2018-Dec-11 07:00S 49°54' W 065°48'1312.6 270 / 8996.9 14.1 22.2
2018-Dec-11 06:00S 49°42' W 065°42'7 7.1 240 / 10996.8 14.4 22.2
2018-Dec-11 05:00S 49°36' W 065°36'1312.6 240 / 12996.6 13.9 22.2
2018-Dec-11 04:00S 49°24' W 065°30'7 7.2 270 / 17996.7 15.3 22.2
2018-Dec-11 03:00S 49°18' W 065°24'1312.6 290 / 22996.3 16.5 22.2
2018-Dec-11 02:00S 49°06' W 065°18'1312.6 300 / 20996.2 17.2 22.2
2018-Dec-11 01:00S 48°54' W 065°12'10 9.9 310 / 13996.6 17.9 22.2
2018-Dec-11 00:00S 48°48' W 065°00'1312.6 270 / 4996.5 16.7 22.2
2018-Dec-10 23:00S 48°36' W 064°54'1312.6 040 / 7995.6 15.3 22.2
2018-Dec-10 22:00S 48°24' W 064°48'7 7.2 010 / 12995.5 15.0 22.2
2018-Dec-10 21:00S 48°18' W 064°42'1312.6 360 / 12996.0 14.1 22.2
2018-Dec-10 20:00S 48°06' W 064°36'7 7.2 350 / 13996.6 13.8 22.2
2018-Dec-10 19:00S 48°00' W 064°30'1312.7 330 / 12997.2 13.5 22.2
2018-Dec-10 18:00S 47°48' W 064°24'7 7.2 330 / 18997.8 13.7 22.2
2018-Dec-10 17:00S 47°42' W 064°18'1312.7 320 / 22998.3 13.9 22.2
2018-Dec-10 16:00S 47°30' W 064°12'1312.7 320 / 21998.9 14.0 22.2
2018-Dec-10 15:00S 47°18' W 064°06'7 7.3 310 / 21999.6 14.3 22.2
2018-Dec-10 14:00S 47°12' W 064°00'1312.7 310 / 161000.4 14.1 22.2
2018-Dec-10 13:00S 47°00' W 063°54'1312.7 300 / 181000.9 14.1 22.2
2018-Dec-10 12:00S 46°48' W 063°48'7 7.3 290 / 211001.1 14.9 22.2
2018-Dec-10 11:00S 46°42' W 063°42'1312.7 290 / 221000.9 15.7 22.2
2018-Dec-10 10:00S 46°30' W 063°36'7 7.3 300 / 171001.3 15.8 22.2
2018-Dec-10 09:00S 46°24' W 063°30'1312.7 300 / 161001.9 15.3 22.2
2018-Dec-10 08:00S 46°12' W 063°24'1312.7 320 / 131002.3 15.0 22.2
2018-Dec-10 07:00S 46°00' W 063°18'7 7.3 350 / 101002.9 14.6 22.2
2018-Dec-10 06:00S 45°54' W 063°12'1312.7 1003.5 14.5 22.2
2018-Dec-10 05:00S 45°42' W 063°06'1312.7 340 / 91004.4 14.3 22.2
2018-Dec-10 04:00S 45°30' W 063°00'7 7.3 330 / 111004.8 14.1 22.2
2018-Dec-10 03:00S 45°24' W 062°54'1312.7 310 / 121004.9 14.1 22.2
2018-Dec-10 02:00S 45°12' W 062°48'7 7.3 310 / 111005.0 14.2 22.2
2018-Dec-10 01:00S 45°06' W 062°42'1312.7 310 / 51004.5 14.3 22.2
2018-Dec-10 00:00S 44°54' W 062°36'1312.7 200 / 41003.9 14.5 22.2
2018-Dec-09 23:00S 44°42' W 062°30'7 7.4 210 / 81003.9 14.6 22.2
2018-Dec-09 22:00S 44°36' W 062°24'1312.7 220 / 101004.0 14.4 22.2
2018-Dec-09 21:00S 44°24' W 062°18'7 7.4 240 / 141004.1 14.3 22.2
2018-Dec-09 20:00S 44°18' W 062°12'1312.7 240 / 151004.0 14.3 22.2
2018-Dec-09 19:00S 44°06' W 062°06'6 6.0 240 / 191003.7 14.3 22.2
2018-Dec-09 18:00S 44°00' W 062°06'1312.8 250 / 231003.0 14.2 22.2
2018-Dec-09 17:00S 43°48' W 062°00'7 7.4 250 / 191003.0 14.3 22.2
2018-Dec-09 16:00S 43°42' W 061°54'1514.8 250 / 161003.0 14.5 22.2
2018-Dec-09 15:00S 43°30' W 061°42'7 7.4 260 / 131002.8 14.6 22.2
2018-Dec-09 14:00S 43°24' W 061°36'7 7.4 250 / 141002.4 15.0 22.2
2018-Dec-09 13:00S 43°18' W 061°30'1312.8 250 / 151002.1 15.1 22.2
2018-Dec-09 12:00S 43°06' W 061°24'1110.6 260 / 161001.8 15.2 22.2
2018-Dec-09 11:00S 43°00' W 061°12'   260 / 201000.9 15.8 22.2

Dump ship's entire track history